CheckWX is a tool to help pilots better visualize weather data.  It is not intended as a substitute for an official pre-flight weather briefing.

02:16:53 UTC

KMWK METAR
Mount Airy / Surry County Airport
Mount Airy, North Carolina, USA
Current

12 mins ago

KMWK 180205Z AUTO 00000KT 1 3/4SM -RA OVC002 02/01 A2995 RMK AO2 T00210010
Observed
Feb-18 @ 02:05 UTC
Visibility
1 3/4 SM
Flight Rules
LIFR
Conditions
Light Rain
Cloud Levels
  • Overcast at 200' AGL
Temperature
C / 36°F
Dewpoint
C / 34°F
Humidity
93%
Altimeter
29.95" Hg
Pressure
1014.22 hPa
Previous

32 mins ago

KMWK 180145Z AUTO 00000KT 1 3/4SM DZ OVC002 02/01 A2995 RMK AO2 T00200008
Observed
Feb-18 @ 01:45 UTC
Visibility
1 3/4 SM
Flight Rules
LIFR
Conditions
Drizzle
Cloud Levels
  • Overcast at 200' AGL
Temperature
C / 36°F
Dewpoint
C / 34°F
Humidity
93%
Altimeter
29.95" Hg
Pressure
1014.22 hPa
Previous

52 mins ago

KMWK 180125Z AUTO 00000KT 1 3/4SM DZ OVC002 02/01 A2996 RMK AO2 T00200008
Observed
Feb-18 @ 01:25 UTC
Visibility
1 3/4 SM
Flight Rules
LIFR
Conditions
Drizzle
Cloud Levels
  • Overcast at 200' AGL
Temperature
C / 36°F
Dewpoint
C / 34°F
Humidity
93%
Altimeter
29.96" Hg
Pressure
1014.52 hPa